sensor_id;sensor_type;location;lat;lon;timestamp;P1;durP1;ratioP1;P2;durP2;ratioP2
15990;SDS011;8100;50.994;4.538;2023-04-03T00:01:32;5.95;;;3.72;;
15990;SDS011;8100;50.994;4.538;2023-04-03T00:04:19;4.53;;;3.63;;
15990;SDS011;8100;50.994;4.538;2023-04-03T00:07:06;6.38;;;3.83;;
15990;SDS011;8100;50.994;4.538;2023-04-03T00:09:53;6.80;;;4.13;;
15990;SDS011;8100;50.994;4.538;2023-04-03T00:12:41;6.93;;;4.30;;
15990;SDS011;8100;50.994;4.538;2023-04-03T00:15:29;7.32;;;3.78;;
15990;SDS011;8100;50.994;4.538;2023-04-03T00:18:17;10.73;;;4.07;;
15990;SDS011;8100;50.994;4.538;2023-04-03T00:21:04;8.32;;;3.53;;
15990;SDS011;8100;50.994;4.538;2023-04-03T00:23:52;8.32;;;4.28;;
15990;SDS011;8100;50.994;4.538;2023-04-03T00:26:39;5.25;;;3.55;;
15990;SDS011;8100;50.994;4.538;2023-04-03T00:29:26;4.70;;;3.67;;
15990;SDS011;8100;50.994;4.538;2023-04-03T00:32:15;6.97;;;3.72;;
15990;SDS011;8100;50.994;4.538;2023-04-03T00:35:02;5.25;;;3.42;;
15990;SDS011;8100;50.994;4.538;2023-04-03T00:37:50;6.28;;;3.63;;
15990;SDS011;8100;50.994;4.538;2023-04-03T00:40:41;5.97;;;3.63;;
15990;SDS011;8100;50.994;4.538;2023-04-03T00:43:30;5.18;;;3.50;;
15990;SDS011;8100;50.994;4.538;2023-04-03T00:46:17;5.00;;;3.47;;
15990;SDS011;8100;50.994;4.538;2023-04-03T00:49:05;6.22;;;3.50;;
15990;SDS011;8100;50.994;4.538;2023-04-03T00:51:53;7.18;;;3.58;;
15990;SDS011;8100;50.994;4.538;2023-04-03T00:54:41;5.22;;;3.35;;
15990;SDS011;8100;50.994;4.538;2023-04-03T00:57:30;5.05;;;3.17;;
15990;SDS011;8100;50.994;4.538;2023-04-03T01:00:19;5.18;;;3.53;;
15990;SDS011;8100;50.994;4.538;2023-04-03T01:03:07;8.18;;;3.60;;
15990;SDS011;8100;50.994;4.538;2023-04-03T01:05:56;4.95;;;3.60;;
15990;SDS011;8100;50.994;4.538;2023-04-03T01:08:44;5.40;;;3.03;;
15990;SDS011;8100;50.994;4.538;2023-04-03T01:11:34;5.47;;;3.10;;
15990;SDS011;8100;50.994;4.538;2023-04-03T01:14:22;6.72;;;3.03;;
15990;SDS011;8100;50.994;4.538;2023-04-03T01:17:23;4.35;;;3.05;;
15990;SDS011;8100;50.994;4.538;2023-04-03T01:20:24;4.88;;;3.53;;
15990;SDS011;8100;50.994;4.538;2023-04-03T01:23:56;4.75;;;3.20;;
15990;SDS011;8100;50.994;4.538;2023-04-03T01:26:50;4.95;;;3.25;;
15990;SDS011;8100;50.994;4.538;2023-04-03T01:29:38;6.53;;;3.22;;
15990;SDS011;8100;50.994;4.538;2023-04-03T01:32:27;6.65;;;3.42;;
15990;SDS011;8100;50.994;4.538;2023-04-03T01:35:15;5.38;;;3.20;;
15990;SDS011;8100;50.994;4.538;2023-04-03T01:38:02;6.68;;;3.30;;
15990;SDS011;8100;50.994;4.538;2023-04-03T01:40:49;5.28;;;3.35;;
15990;SDS011;8100;50.994;4.538;2023-04-03T01:43:37;5.13;;;3.13;;
15990;SDS011;8100;50.994;4.538;2023-04-03T01:46:24;5.53;;;3.38;;
15990;SDS011;8100;50.994;4.538;2023-04-03T01:49:13;4.75;;;3.35;;
15990;SDS011;8100;50.994;4.538;2023-04-03T01:52:00;6.55;;;3.10;;
15990;SDS011;8100;50.994;4.538;2023-04-03T01:54:48;5.32;;;3.25;;
15990;SDS011;8100;50.994;4.538;2023-04-03T01:57:35;4.50;;;3.05;;
15990;SDS011;8100;50.994;4.538;2023-04-03T02:00:23;4.07;;;3.13;;
15990;SDS011;8100;50.994;4.538;2023-04-03T02:03:10;4.97;;;3.03;;
15990;SDS011;8100;50.994;4.538;2023-04-03T02:05:59;5.47;;;3.15;;
15990;SDS011;8100;50.994;4.538;2023-04-03T02:08:46;5.93;;;3.30;;
15990;SDS011;8100;50.994;4.538;2023-04-03T02:11:33;4.78;;;3.13;;
15990;SDS011;8100;50.994;4.538;2023-04-03T02:14:21;5.63;;;3.20;;
15990;SDS011;8100;50.994;4.538;2023-04-03T02:17:09;4.38;;;3.00;;
15990;SDS011;8100;50.994;4.538;2023-04-03T02:19:56;5.65;;;3.25;;
15990;SDS011;8100;50.994;4.538;2023-04-03T02:22:44;4.35;;;3.03;;
15990;SDS011;8100;50.994;4.538;2023-04-03T02:25:32;4.57;;;2.90;;
15990;SDS011;8100;50.994;4.538;2023-04-03T02:28:19;5.50;;;2.80;;
15990;SDS011;8100;50.994;4.538;2023-04-03T02:31:07;5.35;;;3.22;;
15990;SDS011;8100;50.994;4.538;2023-04-03T02:33:55;4.55;;;3.20;;
15990;SDS011;8100;50.994;4.538;2023-04-03T02:36:42;4.85;;;3.10;;
15990;SDS011;8100;50.994;4.538;2023-04-03T02:39:31;8.05;;;3.47;;
15990;SDS011;8100;50.994;4.538;2023-04-03T02:42:19;5.20;;;3.42;;
15990;SDS011;8100;50.994;4.538;2023-04-03T02:45:06;4.43;;;3.33;;
15990;SDS011;8100;50.994;4.538;2023-04-03T02:47:54;4.88;;;3.60;;
15990;SDS011;8100;50.994;4.538;2023-04-03T02:50:41;5.70;;;3.45;;
15990;SDS011;8100;50.994;4.538;2023-04-03T02:53:28;4.05;;;3.03;;
15990;SDS011;8100;50.994;4.538;2023-04-03T02:56:17;5.18;;;3.20;;
15990;SDS011;8100;50.994;4.538;2023-04-03T02:59:05;6.30;;;3.67;;
15990;SDS011;8100;50.994;4.538;2023-04-03T03:01:52;4.15;;;3.10;;
15990;SDS011;8100;50.994;4.538;2023-04-03T03:04:41;4.65;;;3.38;;
15990;SDS011;8100;50.994;4.538;2023-04-03T03:07:28;6.05;;;3.25;;
15990;SDS011;8100;50.994;4.538;2023-04-03T03:10:16;4.60;;;3.33;;
15990;SDS011;8100;50.994;4.538;2023-04-03T03:13:04;4.78;;;3.15;;
15990;SDS011;8100;50.994;4.538;2023-04-03T03:15:52;4.95;;;3.38;;
15990;SDS011;8100;50.994;4.538;2023-04-03T03:18:39;3.67;;;3.20;;
15990;SDS011;8100;50.994;4.538;2023-04-03T03:21:26;5.35;;;3.53;;
15990;SDS011;8100;50.994;4.538;2023-04-03T03:24:13;5.53;;;3.42;;
15990;SDS011;8100;50.994;4.538;2023-04-03T03:27:01;6.22;;;3.42;;
15990;SDS011;8100;50.994;4.538;2023-04-03T03:29:50;8.07;;;3.42;;
15990;SDS011;8100;50.994;4.538;2023-04-03T03:32:37;5.13;;;3.35;;
15990;SDS011;8100;50.994;4.538;2023-04-03T03:35:24;4.70;;;3.70;;
15990;SDS011;8100;50.994;4.538;2023-04-03T03:38:11;7.80;;;3.60;;
15990;SDS011;8100;50.994;4.538;2023-04-03T03:40:59;6.35;;;3.75;;
15990;SDS011;8100;50.994;4.538;2023-04-03T03:43:46;5.63;;;3.28;;
15990;SDS011;8100;50.994;4.538;2023-04-03T03:46:35;6.00;;;3.80;;
15990;SDS011;8100;50.994;4.538;2023-04-03T03:49:22;4.63;;;3.20;;
15990;SDS011;8100;50.994;4.538;2023-04-03T03:52:10;5.82;;;3.58;;
15990;SDS011;8100;50.994;4.538;2023-04-03T03:54:58;6.15;;;4.05;;
15990;SDS011;8100;50.994;4.538;2023-04-03T03:57:45;5.97;;;3.53;;
15990;SDS011;8100;50.994;4.538;2023-04-03T04:00:32;6.97;;;3.70;;
15990;SDS011;8100;50.994;4.538;2023-04-03T04:03:21;6.35;;;3.72;;
15990;SDS011;8100;50.994;4.538;2023-04-03T04:06:08;6.50;;;3.47;;
15990;SDS011;8100;50.994;4.538;2023-04-03T04:08:55;4.72;;;3.25;;
15990;SDS011;8100;50.994;4.538;2023-04-03T04:11:42;5.68;;;3.40;;
15990;SDS011;8100;50.994;4.538;2023-04-03T04:14:30;5.20;;;3.65;;
15990;SDS011;8100;50.994;4.538;2023-04-03T04:17:17;4.00;;;3.40;;
15990;SDS011;8100;50.994;4.538;2023-04-03T04:20:07;5.55;;;3.85;;
15990;SDS011;8100;50.994;4.538;2023-04-03T04:22:54;5.07;;;3.47;;
15990;SDS011;8100;50.994;4.538;2023-04-03T04:25:43;4.65;;;3.20;;
15990;SDS011;8100;50.994;4.538;2023-04-03T04:28:31;7.03;;;3.78;;
15990;SDS011;8100;50.994;4.538;2023-04-03T04:31:18;5.88;;;3.45;;
15990;SDS011;8100;50.994;4.538;2023-04-03T04:34:05;6.28;;;3.30;;
15990;SDS011;8100;50.994;4.538;2023-04-03T04:36:54;5.13;;;3.22;;
15990;SDS011;8100;50.994;4.538;2023-04-03T04:39:41;5.35;;;3.40;;
15990;SDS011;8100;50.994;4.538;2023-04-03T04:42:29;4.45;;;3.38;;
15990;SDS011;8100;50.994;4.538;2023-04-03T04:45:16;5.07;;;3.65;;
15990;SDS011;8100;50.994;4.538;2023-04-03T04:48:04;4.43;;;3.13;;
15990;SDS011;8100;50.994;4.538;2023-04-03T04:50:51;5.03;;;3.42;;
15990;SDS011;8100;50.994;4.538;2023-04-03T04:53:40;4.63;;;3.58;;
15990;SDS011;8100;50.994;4.538;2023-04-03T04:56:28;5.88;;;3.78;;
15990;SDS011;8100;50.994;4.538;2023-04-03T04:59:15;5.72;;;3.42;;
15990;SDS011;8100;50.994;4.538;2023-04-03T05:02:02;5.90;;;3.53;;
15990;SDS011;8100;50.994;4.538;2023-04-03T05:04:49;5.93;;;3.78;;
15990;SDS011;8100;50.994;4.538;2023-04-03T05:07:37;6.72;;;3.60;;
15990;SDS011;8100;50.994;4.538;2023-04-03T05:10:26;5.20;;;3.40;;
15990;SDS011;8100;50.994;4.538;2023-04-03T05:13:13;5.43;;;3.63;;
15990;SDS011;8100;50.994;4.538;2023-04-03T05:16:01;5.75;;;3.55;;
15990;SDS011;8100;50.994;4.538;2023-04-03T05:18:49;4.32;;;3.53;;
15990;SDS011;8100;50.994;4.538;2023-04-03T05:21:37;5.70;;;3.72;;
15990;SDS011;8100;50.994;4.538;2023-04-03T05:24:24;5.53;;;4.18;;
15990;SDS011;8100;50.994;4.538;2023-04-03T05:27:13;6.63;;;3.80;;
15990;SDS011;8100;50.994;4.538;2023-04-03T05:30:00;8.68;;;4.03;;
15990;SDS011;8100;50.994;4.538;2023-04-03T05:32:48;5.28;;;3.78;;
15990;SDS011;8100;50.994;4.538;2023-04-03T05:35:35;4.50;;;3.55;;
15990;SDS011;8100;50.994;4.538;2023-04-03T05:38:24;5.70;;;3.88;;
15990;SDS011;8100;50.994;4.538;2023-04-03T05:41:11;4.43;;;3.75;;
15990;SDS011;8100;50.994;4.538;2023-04-03T05:44:01;6.18;;;4.40;;
15990;SDS011;8100;50.994;4.538;2023-04-03T05:46:48;6.30;;;4.00;;
15990;SDS011;8100;50.994;4.538;2023-04-03T05:49:35;5.28;;;3.92;;
15990;SDS011;8100;50.994;4.538;2023-04-03T05:52:26;8.05;;;4.38;;
15990;SDS011;8100;50.994;4.538;2023-04-03T05:55:15;5.30;;;4.18;;
15990;SDS011;8100;50.994;4.538;2023-04-03T05:58:02;4.80;;;3.83;;
15990;SDS011;8100;50.994;4.538;2023-04-03T06:00:51;5.93;;;4.30;;
15990;SDS011;8100;50.994;4.538;2023-04-03T06:03:38;6.95;;;4.47;;
15990;SDS011;8100;50.994;4.538;2023-04-03T06:06:25;7.82;;;4.35;;
15990;SDS011;8100;50.994;4.538;2023-04-03T06:09:28;8.05;;;4.38;;
15990;SDS011;8100;50.994;4.538;2023-04-03T06:12:16;8.20;;;4.47;;
15990;SDS011;8100;50.994;4.538;2023-04-03T06:15:03;6.07;;;4.20;;
15990;SDS011;8100;50.994;4.538;2023-04-03T06:17:54;4.47;;;3.88;;
15990;SDS011;8100;50.994;4.538;2023-04-03T06:20:42;6.65;;;4.15;;
15990;SDS011;8100;50.994;4.538;2023-04-03T06:23:29;8.10;;;4.22;;
15990;SDS011;8100;50.994;4.538;2023-04-03T06:26:18;5.93;;;4.50;;
15990;SDS011;8100;50.994;4.538;2023-04-03T06:29:06;5.70;;;4.30;;
15990;SDS011;8100;50.994;4.538;2023-04-03T06:31:53;5.63;;;4.40;;
15990;SDS011;8100;50.994;4.538;2023-04-03T06:34:42;9.05;;;4.53;;
15990;SDS011;8100;50.994;4.538;2023-04-03T06:37:30;8.52;;;5.03;;
15990;SDS011;8100;50.994;4.538;2023-04-03T06:40:18;6.85;;;4.55;;
15990;SDS011;8100;50.994;4.538;2023-04-03T06:43:08;7.82;;;4.50;;
15990;SDS011;8100;50.994;4.538;2023-04-03T06:45:55;6.75;;;4.20;;
15990;SDS011;8100;50.994;4.538;2023-04-03T06:48:43;7.03;;;4.07;;
15990;SDS011;8100;50.994;4.538;2023-04-03T06:51:34;5.20;;;4.20;;
15990;SDS011;8100;50.994;4.538;2023-04-03T06:54:22;8.48;;;4.75;;
15990;SDS011;8100;50.994;4.538;2023-04-03T06:57:10;6.20;;;4.25;;
15990;SDS011;8100;50.994;4.538;2023-04-03T06:59:57;5.45;;;4.25;;
15990;SDS011;8100;50.994;4.538;2023-04-03T07:02:45;6.45;;;3.83;;
15990;SDS011;8100;50.994;4.538;2023-04-03T07:05:32;8.60;;;4.25;;
15990;SDS011;8100;50.994;4.538;2023-04-03T07:08:21;7.47;;;4.25;;
15990;SDS011;8100;50.994;4.538;2023-04-03T07:11:09;7.68;;;4.00;;
15990;SDS011;8100;50.994;4.538;2023-04-03T07:13:57;7.20;;;4.00;;
15990;SDS011;8100;50.994;4.538;2023-04-03T07:16:44;6.85;;;3.78;;
15990;SDS011;8100;50.994;4.538;2023-04-03T07:19:32;7.05;;;3.85;;
15990;SDS011;8100;50.994;4.538;2023-04-03T07:22:19;7.20;;;4.07;;
15990;SDS011;8100;50.994;4.538;2023-04-03T07:25:08;5.20;;;3.50;;
15990;SDS011;8100;50.994;4.538;2023-04-03T07:27:56;6.35;;;3.15;;
15990;SDS011;8100;50.994;4.538;2023-04-03T07:30:43;6.30;;;4.00;;
15990;SDS011;8100;50.994;4.538;2023-04-03T07:33:32;8.00;;;3.58;;
15990;SDS011;8100;50.994;4.538;2023-04-03T07:36:20;6.28;;;3.72;;
15990;SDS011;8100;50.994;4.538;2023-04-03T07:39:08;7.15;;;3.45;;
15990;SDS011;8100;50.994;4.538;2023-04-03T07:41:57;6.90;;;4.10;;
15990;SDS011;8100;50.994;4.538;2023-04-03T07:44:45;6.70;;;3.67;;
15990;SDS011;8100;50.994;4.538;2023-04-03T07:47:33;7.20;;;3.28;;
15990;SDS011;8100;50.994;4.538;2023-04-03T07:50:20;4.60;;;2.65;;
15990;SDS011;8100;50.994;4.538;2023-04-03T07:53:07;7.95;;;3.47;;
15990;SDS011;8100;50.994;4.538;2023-04-03T07:55:56;7.30;;;3.03;;
15990;SDS011;8100;50.994;4.538;2023-04-03T07:58:47;4.72;;;3.38;;
15990;SDS011;8100;50.994;4.538;2023-04-03T08:01:34;6.20;;;3.35;;
15990;SDS011;8100;50.994;4.538;2023-04-03T08:04:21;5.05;;;2.97;;
15990;SDS011;8100;50.994;4.538;2023-04-03T08:07:09;6.38;;;2.58;;
15990;SDS011;8100;50.994;4.538;2023-04-03T08:09:56;4.65;;;2.90;;
15990;SDS011;8100;50.994;4.538;2023-04-03T08:12:45;5.90;;;3.08;;
15990;SDS011;8100;50.994;4.538;2023-04-03T08:15:34;4.13;;;2.63;;
15990;SDS011;8100;50.994;4.538;2023-04-03T08:18:22;8.40;;;3.10;;
15990;SDS011;8100;50.994;4.538;2023-04-03T08:21:11;3.03;;;2.28;;
15990;SDS011;8100;50.994;4.538;2023-04-03T08:23:59;5.40;;;2.40;;
15990;SDS011;8100;50.994;4.538;2023-04-03T08:26:46;4.15;;;2.38;;
15990;SDS011;8100;50.994;4.538;2023-04-03T08:29:33;5.28;;;2.33;;
15990;SDS011;8100;50.994;4.538;2023-04-03T08:32:24;4.88;;;2.58;;
15990;SDS011;8100;50.994;4.538;2023-04-03T08:35:12;4.72;;;2.50;;
15990;SDS011;8100;50.994;4.538;2023-04-03T08:37:59;4.15;;;2.03;;
15990;SDS011;8100;50.994;4.538;2023-04-03T08:40:47;5.93;;;2.60;;
15990;SDS011;8100;50.994;4.538;2023-04-03T08:43:35;4.07;;;2.05;;
15990;SDS011;8100;50.994;4.538;2023-04-03T08:46:33;5.70;;;2.22;;
15990;SDS011;8100;50.994;4.538;2023-04-03T08:49:31;5.72;;;1.85;;
15990;SDS011;8100;50.994;4.538;2023-04-03T08:52:31;3.55;;;1.80;;
15990;SDS011;8100;50.994;4.538;2023-04-03T08:55:23;2.58;;;1.48;;
15990;SDS011;8100;50.994;4.538;2023-04-03T08:58:15;6.45;;;2.08;;
15990;SDS011;8100;50.994;4.538;2023-04-03T09:01:05;2.30;;;0.95;;
15990;SDS011;8100;50.994;4.538;2023-04-03T09:04:01;2.53;;;1.27;;
15990;SDS011;8100;50.994;4.538;2023-04-03T09:06:54;4.10;;;1.88;;
15990;SDS011;8100;50.994;4.538;2023-04-03T09:09:45;4.88;;;1.80;;
15990;SDS011;8100;50.994;4.538;2023-04-03T09:12:37;3.22;;;1.73;;
15990;SDS011;8100;50.994;4.538;2023-04-03T09:15:26;2.70;;;1.40;;
15990;SDS011;8100;50.994;4.538;2023-04-03T09:18:15;5.90;;;1.60;;
15990;SDS011;8100;50.994;4.538;2023-04-03T09:21:12;3.47;;;1.50;;
15990;SDS011;8100;50.994;4.538;2023-04-03T09:24:05;3.33;;;1.50;;
15990;SDS011;8100;50.994;4.538;2023-04-03T09:26:55;6.55;;;1.60;;
15990;SDS011;8100;50.994;4.538;2023-04-03T09:29:45;3.33;;;1.27;;
15990;SDS011;8100;50.994;4.538;2023-04-03T09:32:33;3.65;;;1.65;;
15990;SDS011;8100;50.994;4.538;2023-04-03T09:35:23;1.88;;;1.15;;
15990;SDS011;8100;50.994;4.538;2023-04-03T09:38:15;6.32;;;1.23;;
15990;SDS011;8100;50.994;4.538;2023-04-03T09:41:09;4.45;;;1.60;;
15990;SDS011;8100;50.994;4.538;2023-04-03T09:44:02;4.40;;;1.55;;
15990;SDS011;8100;50.994;4.538;2023-04-03T09:47:17;3.90;;;1.50;;
15990;SDS011;8100;50.994;4.538;2023-04-03T09:50:17;3.45;;;1.33;;
15990;SDS011;8100;50.994;4.538;2023-04-03T09:53:07;1.50;;;0.90;;
15990;SDS011;8100;50.994;4.538;2023-04-03T09:56:21;5.93;;;1.60;;
15990;SDS011;8100;50.994;4.538;2023-04-03T09:59:13;2.92;;;1.00;;
15990;SDS011;8100;50.994;4.538;2023-04-03T10:02:03;4.13;;;1.38;;
15990;SDS011;8100;50.994;4.538;2023-04-03T10:05:23;1.90;;;0.80;;
15990;SDS011;8100;50.994;4.538;2023-04-03T10:08:19;2.67;;;0.70;;
15990;SDS011;8100;50.994;4.538;2023-04-03T10:11:10;0.45;;;0.32;;
15990;SDS011;8100;50.994;4.538;2023-04-03T10:14:02;2.20;;;1.15;;
15990;SDS011;8100;50.994;4.538;2023-04-03T10:16:52;4.35;;;1.75;;
15990;SDS011;8100;50.994;4.538;2023-04-03T10:19:45;3.75;;;1.58;;
15990;SDS011;8100;50.994;4.538;2023-04-03T10:22:37;3.47;;;1.23;;
15990;SDS011;8100;50.994;4.538;2023-04-03T10:25:32;2.88;;;1.25;;
15990;SDS011;8100;50.994;4.538;2023-04-03T10:28:27;3.90;;;1.30;;
15990;SDS011;8100;50.994;4.538;2023-04-03T10:31:23;2.78;;;0.98;;
15990;SDS011;8100;50.994;4.538;2023-04-03T10:34:18;4.03;;;1.60;;
15990;SDS011;8100;50.994;4.538;2023-04-03T10:37:11;4.40;;;1.50;;
15990;SDS011;8100;50.994;4.538;2023-04-03T10:40:11;2.03;;;1.25;;
15990;SDS011;8100;50.994;4.538;2023-04-03T10:43:08;0.73;;;0.55;;
15990;SDS011;8100;50.994;4.538;2023-04-03T10:46:00;1.50;;;0.80;;
15990;SDS011;8100;50.994;4.538;2023-04-03T10:48:58;1.13;;;0.52;;
15990;SDS011;8100;50.994;4.538;2023-04-03T10:51:54;3.95;;;1.27;;
15990;SDS011;8100;50.994;4.538;2023-04-03T10:54:55;4.18;;;1.20;;
15990;SDS011;8100;50.994;4.538;2023-04-03T10:57:48;2.47;;;0.68;;
15990;SDS011;8100;50.994;4.538;2023-04-03T11:00:38;1.90;;;0.75;;
15990;SDS011;8100;50.994;4.538;2023-04-03T11:03:29;2.65;;;1.50;;
15990;SDS011;8100;50.994;4.538;2023-04-03T11:06:21;4.28;;;1.42;;
15990;SDS011;8100;50.994;4.538;2023-04-03T11:09:15;2.90;;;0.93;;
15990;SDS011;8100;50.994;4.538;2023-04-03T11:12:10;6.10;;;1.38;;
15990;SDS011;8100;50.994;4.538;2023-04-03T11:15:01;3.72;;;1.20;;
15990;SDS011;8100;50.994;4.538;2023-04-03T11:17:50;3.75;;;1.20;;
15990;SDS011;8100;50.994;4.538;2023-04-03T11:20:42;0.80;;;0.40;;
15990;SDS011;8100;50.994;4.538;2023-04-03T11:23:35;0.03;;;0.03;;
15990;SDS011;8100;50.994;4.538;2023-04-03T11:26:26;1.35;;;0.55;;
15990;SDS011;8100;50.994;4.538;2023-04-03T11:29:18;3.58;;;1.10;;
15990;SDS011;8100;50.994;4.538;2023-04-03T11:32:13;3.08;;;1.10;;
15990;SDS011;8100;50.994;4.538;2023-04-03T11:35:23;2.75;;;0.75;;
15990;SDS011;8100;50.994;4.538;2023-04-03T11:38:14;2.78;;;1.00;;
15990;SDS011;8100;50.994;4.538;2023-04-03T11:41:09;0.32;;;0.22;;
15990;SDS011;8100;50.994;4.538;2023-04-03T11:44:00;0.40;;;0.30;;
15990;SDS011;8100;50.994;4.538;2023-04-03T11:46:52;0.20;;;0.20;;
15990;SDS011;8100;50.994;4.538;2023-04-03T11:49:51;0.68;;;0.25;;
15990;SDS011;8100;50.994;4.538;2023-04-03T11:52:59;0.38;;;0.30;;
15990;SDS011;8100;50.994;4.538;2023-04-03T11:55:57;0.88;;;0.38;;
15990;SDS011;8100;50.994;4.538;2023-04-03T11:58:51;1.88;;;0.85;;
15990;SDS011;8100;50.994;4.538;2023-04-03T12:02:35;2.97;;;1.13;;
15990;SDS011;8100;50.994;4.538;2023-04-03T12:05:25;1.42;;;0.80;;
15990;SDS011;8100;50.994;4.538;2023-04-03T12:08:22;3.38;;;1.15;;
15990;SDS011;8100;50.994;4.538;2023-04-03T12:11:15;3.45;;;1.25;;
15990;SDS011;8100;50.994;4.538;2023-04-03T12:14:14;1.20;;;0.80;;
15990;SDS011;8100;50.994;4.538;2023-04-03T12:17:03;2.00;;;0.90;;
15990;SDS011;8100;50.994;4.538;2023-04-03T12:23:27;0.82;;;0.40;;
15990;SDS011;8100;50.994;4.538;2023-04-03T12:26:20;4.03;;;1.00;;
15990;SDS011;8100;50.994;4.538;2023-04-03T12:29:15;2.78;;;0.57;;
15990;SDS011;8100;50.994;4.538;2023-04-03T12:32:09;6.53;;;1.10;;
15990;SDS011;8100;50.994;4.538;2023-04-03T12:35:15;2.05;;;0.60;;
15990;SDS011;8100;50.994;4.538;2023-04-03T12:38:16;3.63;;;1.17;;
15990;SDS011;8100;50.994;4.538;2023-04-03T12:41:19;4.95;;;1.20;;
15990;SDS011;8100;50.994;4.538;2023-04-03T12:44:24;1.63;;;0.82;;
15990;SDS011;8100;50.994;4.538;2023-04-03T12:47:25;2.08;;;1.27;;
15990;SDS011;8100;50.994;4.538;2023-04-03T12:50:22;2.95;;;1.30;;
15990;SDS011;8100;50.994;4.538;2023-04-03T12:53:12;4.85;;;1.30;;
15990;SDS011;8100;50.994;4.538;2023-04-03T12:56:18;3.17;;;1.15;;
15990;SDS011;8100;50.994;4.538;2023-04-03T12:59:14;4.28;;;0.70;;
15990;SDS011;8100;50.994;4.538;2023-04-03T13:02:10;1.50;;;1.00;;
15990;SDS011;8100;50.994;4.538;2023-04-03T13:05:08;2.30;;;1.30;;
15990;SDS011;8100;50.994;4.538;2023-04-03T13:08:02;2.20;;;1.17;;
15990;SDS011;8100;50.994;4.538;2023-04-03T13:10:52;3.38;;;1.00;;
15990;SDS011;8100;50.994;4.538;2023-04-03T13:13:53;3.55;;;0.80;;
15990;SDS011;8100;50.994;4.538;2023-04-03T13:16:43;2.55;;;0.90;;
15990;SDS011;8100;50.994;4.538;2023-04-03T13:19:41;2.08;;;0.85;;
15990;SDS011;8100;50.994;4.538;2023-04-03T13:22:29;6.45;;;1.45;;
15990;SDS011;8100;50.994;4.538;2023-04-03T13:25:24;0.25;;;0.17;;
15990;SDS011;8100;50.994;4.538;2023-04-03T13:28:15;0.15;;;0.10;;
15990;SDS011;8100;50.994;4.538;2023-04-03T13:31:06;0.57;;;0.30;;
15990;SDS011;8100;50.994;4.538;2023-04-03T13:34:03;1.25;;;0.50;;
15990;SDS011;8100;50.994;4.538;2023-04-03T13:36:59;3.50;;;1.08;;
15990;SDS011;8100;50.994;4.538;2023-04-03T13:39:56;3.00;;;0.93;;
15990;SDS011;8100;50.994;4.538;2023-04-03T13:42:46;2.00;;;1.23;;
15990;SDS011;8100;50.994;4.538;2023-04-03T13:45:56;2.30;;;1.00;;
15990;SDS011;8100;50.994;4.538;2023-04-03T13:48:52;4.72;;;1.50;;
15990;SDS011;8100;50.994;4.538;2023-04-03T13:51:40;3.70;;;1.30;;
15990;SDS011;8100;50.994;4.538;2023-04-03T13:54:30;4.70;;;0.93;;
15990;SDS011;8100;50.994;4.538;2023-04-03T13:57:21;3.17;;;1.15;;
15990;SDS011;8100;50.994;4.538;2023-04-03T14:00:19;1.88;;;0.70;;
15990;SDS011;8100;50.994;4.538;2023-04-03T14:03:14;2.55;;;1.08;;
15990;SDS011;8100;50.994;4.538;2023-04-03T14:06:08;4.18;;;0.85;;
15990;SDS011;8100;50.994;4.538;2023-04-03T14:08:57;3.92;;;1.10;;
15990;SDS011;8100;50.994;4.538;2023-04-03T14:11:46;2.88;;;0.95;;
15990;SDS011;8100;50.994;4.538;2023-04-03T14:14:36;2.10;;;1.00;;
15990;SDS011;8100;50.994;4.538;2023-04-03T14:17:24;2.30;;;0.80;;
15990;SDS011;8100;50.994;4.538;2023-04-03T14:20:14;1.55;;;0.68;;
15990;SDS011;8100;50.994;4.538;2023-04-03T14:23:03;0.68;;;0.43;;
15990;SDS011;8100;50.994;4.538;2023-04-03T14:25:50;0.85;;;0.50;;
15990;SDS011;8100;50.994;4.538;2023-04-03T14:28:38;6.43;;;0.50;;
15990;SDS011;8100;50.994;4.538;2023-04-03T14:31:26;0.55;;;0.50;;
15990;SDS011;8100;50.994;4.538;2023-04-03T14:34:14;3.38;;;0.80;;
15990;SDS011;8100;50.994;4.538;2023-04-03T14:37:02;2.10;;;0.90;;
15990;SDS011;8100;50.994;4.538;2023-04-03T14:39:51;1.88;;;1.00;;
15990;SDS011;8100;50.994;4.538;2023-04-03T14:42:39;2.45;;;1.00;;
15990;SDS011;8100;50.994;4.538;2023-04-03T14:45:28;1.27;;;0.57;;
15990;SDS011;8100;50.994;4.538;2023-04-03T14:48:17;3.25;;;1.05;;
15990;SDS011;8100;50.994;4.538;2023-04-03T14:51:06;2.13;;;0.90;;
15990;SDS011;8100;50.994;4.538;2023-04-03T14:53:53;1.42;;;0.82;;
15990;SDS011;8100;50.994;4.538;2023-04-03T14:56:41;1.38;;;0.55;;
15990;SDS011;8100;50.994;4.538;2023-04-03T14:59:29;4.03;;;1.10;;
15990;SDS011;8100;50.994;4.538;2023-04-03T15:02:26;1.05;;;0.40;;
15990;SDS011;8100;50.994;4.538;2023-04-03T15:05:15;1.30;;;0.80;;
15990;SDS011;8100;50.994;4.538;2023-04-03T15:08:04;1.67;;;0.82;;
15990;SDS011;8100;50.994;4.538;2023-04-03T15:10:51;2.25;;;1.10;;
15990;SDS011;8100;50.994;4.538;2023-04-03T15:13:41;3.33;;;0.98;;
15990;SDS011;8100;50.994;4.538;2023-04-03T15:16:28;1.88;;;0.75;;
15990;SDS011;8100;50.994;4.538;2023-04-03T15:19:17;1.55;;;0.80;;
15990;SDS011;8100;50.994;4.538;2023-04-03T15:22:04;1.23;;;0.70;;
15990;SDS011;8100;50.994;4.538;2023-04-03T15:24:52;2.10;;;1.10;;
15990;SDS011;8100;50.994;4.538;2023-04-03T15:27:39;1.77;;;1.00;;
15990;SDS011;8100;50.994;4.538;2023-04-03T15:30:26;4.95;;;1.05;;
15990;SDS011;8100;50.994;4.538;2023-04-03T15:33:14;4.60;;;1.17;;
15990;SDS011;8100;50.994;4.538;2023-04-03T15:36:04;2.63;;;1.20;;
15990;SDS011;8100;50.994;4.538;2023-04-03T15:38:52;1.95;;;0.80;;
15990;SDS011;8100;50.994;4.538;2023-04-03T15:41:39;2.72;;;1.13;;
15990;SDS011;8100;50.994;4.538;2023-04-03T15:44:27;2.60;;;1.40;;
15990;SDS011;8100;50.994;4.538;2023-04-03T15:47:14;1.27;;;0.80;;
15990;SDS011;8100;50.994;4.538;2023-04-03T15:50:02;2.42;;;0.63;;
15990;SDS011;8100;50.994;4.538;2023-04-03T15:52:52;1.55;;;0.90;;
15990;SDS011;8100;50.994;4.538;2023-04-03T15:55:40;2.10;;;0.55;;
15990;SDS011;8100;50.994;4.538;2023-04-03T15:58:29;2.13;;;1.00;;
15990;SDS011;8100;50.994;4.538;2023-04-03T16:01:16;2.65;;;1.20;;
15990;SDS011;8100;50.994;4.538;2023-04-03T16:04:03;2.20;;;0.90;;
15990;SDS011;8100;50.994;4.538;2023-04-03T16:06:51;2.08;;;0.75;;
15990;SDS011;8100;50.994;4.538;2023-04-03T16:09:40;3.03;;;1.13;;
15990;SDS011;8100;50.994;4.538;2023-04-03T16:12:27;2.50;;;1.20;;
15990;SDS011;8100;50.994;4.538;2023-04-03T16:15:14;4.38;;;1.58;;
15990;SDS011;8100;50.994;4.538;2023-04-03T16:18:02;1.42;;;0.88;;
15990;SDS011;8100;50.994;4.538;2023-04-03T16:20:49;2.78;;;1.13;;
15990;SDS011;8100;50.994;4.538;2023-04-03T16:23:37;2.88;;;1.02;;
15990;SDS011;8100;50.994;4.538;2023-04-03T16:26:25;1.30;;;0.63;;
15990;SDS011;8100;50.994;4.538;2023-04-03T16:29:13;1.20;;;0.70;;
15990;SDS011;8100;50.994;4.538;2023-04-03T16:32:00;1.17;;;0.77;;
15990;SDS011;8100;50.994;4.538;2023-04-03T16:34:48;3.70;;;0.65;;
15990;SDS011;8100;50.994;4.538;2023-04-03T16:37:36;3.65;;;1.30;;
15990;SDS011;8100;50.994;4.538;2023-04-03T16:40:24;3.38;;;1.33;;
15990;SDS011;8100;50.994;4.538;2023-04-03T16:43:12;4.22;;;1.35;;
15990;SDS011;8100;50.994;4.538;2023-04-03T16:46:00;3.30;;;1.00;;
15990;SDS011;8100;50.994;4.538;2023-04-03T16:48:47;0.47;;;0.45;;
15990;SDS011;8100;50.994;4.538;2023-04-03T16:51:35;2.85;;;1.20;;
15990;SDS011;8100;50.994;4.538;2023-04-03T16:54:22;5.88;;;1.30;;
15990;SDS011;8100;50.994;4.538;2023-04-03T16:57:09;2.50;;;1.27;;
15990;SDS011;8100;50.994;4.538;2023-04-03T16:59:58;2.42;;;1.30;;
15990;SDS011;8100;50.994;4.538;2023-04-03T17:02:45;6.28;;;1.17;;
15990;SDS011;8100;50.994;4.538;2023-04-03T17:05:32;3.92;;;1.52;;
15990;SDS011;8100;50.994;4.538;2023-04-03T17:08:20;4.25;;;1.15;;
15990;SDS011;8100;50.994;4.538;2023-04-03T17:11:07;3.85;;;1.33;;
15990;SDS011;8100;50.994;4.538;2023-04-03T17:13:54;2.70;;;1.40;;
15990;SDS011;8100;50.994;4.538;2023-04-03T17:16:43;3.53;;;0.93;;
15990;SDS011;8100;50.994;4.538;2023-04-03T17:19:31;2.80;;;0.43;;
15990;SDS011;8100;50.994;4.538;2023-04-03T17:22:18;2.42;;;1.13;;
15990;SDS011;8100;50.994;4.538;2023-04-03T17:25:05;3.47;;;1.35;;